sensor_id;sensor_type;location;lat;lon;timestamp;pressure;altitude;pressure_sealevel;temperature;humidity
21664;BME280;10993;52.510;13.456;2023-06-22T00:02:34;57779.88;;;-146.93;68.67
21664;BME280;10993;52.510;13.456;2023-06-22T00:07:36;57737.34;;;-146.93;68.75
21664;BME280;10993;52.510;13.456;2023-06-22T00:12:37;57719.13;;;-146.93;69.06
21664;BME280;10993;52.510;13.456;2023-06-22T00:17:38;57735.31;;;-146.93;69.36
21664;BME280;10993;52.510;13.456;2023-06-22T00:22:39;57727.22;;;-146.93;70.07
21664;BME280;10993;52.510;13.456;2023-06-22T00:27:40;57755.56;;;-146.93;70.18
21664;BME280;10993;52.510;13.456;2023-06-22T00:32:40;57727.22;;;-146.93;69.89
21664;BME280;10993;52.510;13.456;2023-06-22T00:37:42;57711.00;;;-146.93;70.51
21664;BME280;10993;52.510;13.456;2023-06-22T00:42:42;57482.16;;;-146.93;70.94
21664;BME280;10993;52.510;13.456;2023-06-22T00:47:42;57709.00;;;-146.93;71.52
21664;BME280;10993;52.510;13.456;2023-06-22T00:52:45;57684.69;;;-146.93;71.88
21664;BME280;10993;52.510;13.456;2023-06-22T00:57:46;57650.25;;;-146.93;72.50
21664;BME280;10993;52.510;13.456;2023-06-22T01:02:47;57636.06;;;-146.93;72.90
21664;BME280;10993;52.510;13.456;2023-06-22T01:08:04;57674.56;;;-146.93;73.30
21664;BME280;10993;52.510;13.456;2023-06-22T01:13:08;57642.16;;;-146.93;74.46
21664;BME280;10993;52.510;13.456;2023-06-22T01:18:12;57553.03;;;-146.93;74.63
21664;BME280;10993;52.510;13.456;2023-06-22T01:23:26;57640.13;;;-146.93;75.21
21664;BME280;10993;52.510;13.456;2023-06-22T01:28:45;57642.16;;;-146.93;75.68
21664;BME280;10993;52.510;13.456;2023-06-22T01:33:51;57617.84;;;-146.93;76.83
21664;BME280;10993;52.510;13.456;2023-06-22T01:38:52;57437.59;;;-146.93;77.62
21664;BME280;10993;52.510;13.456;2023-06-22T01:43:55;57589.50;;;-146.93;77.92
21664;BME280;10993;52.510;13.456;2023-06-22T01:48:55;57607.72;;;-146.93;77.85
21664;BME280;10993;52.510;13.456;2023-06-22T01:53:56;57585.44;;;-146.93;78.67
21664;BME280;10993;52.510;13.456;2023-06-22T01:59:01;57577.34;;;-146.93;79.27
21664;BME280;10993;52.510;13.456;2023-06-22T02:04:06;57435.56;;;-146.93;79.12
21664;BME280;10993;52.510;13.456;2023-06-22T02:09:09;57589.50;;;-146.93;79.29
21664;BME280;10993;52.510;13.456;2023-06-22T02:14:13;57611.78;;;-146.93;79.20
21664;BME280;10993;52.510;13.456;2023-06-22T02:19:14;57593.53;;;-146.93;79.70
21664;BME280;10993;52.510;13.456;2023-06-22T02:24:16;57591.50;;;-146.93;80.88
21664;BME280;10993;52.510;13.456;2023-06-22T02:29:17;57577.34;;;-146.93;81.17
21664;BME280;10993;52.510;13.456;2023-06-22T02:34:18;57569.25;;;-146.93;81.22
21664;BME280;10993;52.510;13.456;2023-06-22T02:39:19;57569.25;;;-146.93;82.26
21664;BME280;10993;52.510;13.456;2023-06-22T02:44:22;57627.97;;;-146.93;81.15
21664;BME280;10993;52.510;13.456;2023-06-22T02:49:23;57524.69;;;-146.93;80.53
21664;BME280;10993;52.510;13.456;2023-06-22T02:54:23;57490.25;;;-146.93;81.39
21664;BME280;10993;52.510;13.456;2023-06-22T02:59:25;57658.34;;;-146.93;80.95
21664;BME280;10993;52.510;13.456;2023-06-22T03:04:25;57656.31;;;-146.93;80.30
21664;BME280;10993;52.510;13.456;2023-06-22T03:09:26;57662.41;;;-146.93;79.66
21664;BME280;10993;52.510;13.456;2023-06-22T03:14:29;57638.09;;;-146.93;78.96
21664;BME280;10993;52.510;13.456;2023-06-22T03:19:29;57711.00;;;-146.93;77.97
21664;BME280;10993;52.510;13.456;2023-06-22T03:24:34;57678.59;;;-146.93;76.54
21664;BME280;10993;52.510;13.456;2023-06-22T03:29:36;57719.13;;;-146.93;75.25
21664;BME280;10993;52.510;13.456;2023-06-22T03:34:36;57729.25;;;-146.93;74.75
21664;BME280;10993;52.510;13.456;2023-06-22T03:39:36;57796.09;;;-146.93;73.41
21664;BME280;10993;52.510;13.456;2023-06-22T03:44:38;57901.41;;;-146.93;70.46
21664;BME280;10993;52.510;13.456;2023-06-22T03:49:38;58024.97;;;-146.93;66.31
21664;BME280;10993;52.510;13.456;2023-06-22T03:54:39;57933.81;;;-146.93;64.03
21664;BME280;10993;52.510;13.456;2023-06-22T03:59:41;58180.94;;;-146.93;60.69
21664;BME280;10993;52.510;13.456;2023-06-22T04:04:41;58296.41;;;-146.93;58.27
21664;BME280;10993;52.510;13.456;2023-06-22T04:09:41;58561.78;;;-146.93;54.68
21664;BME280;10993;52.510;13.456;2023-06-22T04:14:43;58772.47;;;-146.93;49.66
21664;BME280;10993;52.510;13.456;2023-06-22T04:19:43;58768.44;;;-146.93;49.19
21664;BME280;10993;52.510;13.456;2023-06-22T04:24:44;58654.97;;;-146.93;47.97
21664;BME280;10993;52.510;13.456;2023-06-22T04:29:46;58902.16;;;-146.93;45.67
21664;BME280;10993;52.510;13.456;2023-06-22T04:34:49;58740.06;;;-146.93;45.91
21664;BME280;10993;52.510;13.456;2023-06-22T04:39:49;58950.78;;;-146.93;44.88
21664;BME280;10993;52.510;13.456;2023-06-22T04:44:51;59935.59;;;-146.93;40.25
21664;BME280;10993;52.510;13.456;2023-06-22T04:49:51;60239.63;;;-146.93;36.63
21664;BME280;10993;52.510;13.456;2023-06-22T04:54:52;60568.00;;;-146.93;34.97
21664;BME280;10993;52.510;13.456;2023-06-22T05:00:00;60521.38;;;-146.93;34.68
21664;BME280;10993;52.510;13.456;2023-06-22T05:05:12;60918.69;;;-146.93;33.70
21664;BME280;10993;52.510;13.456;2023-06-22T05:10:16;61003.84;;;-146.93;33.50
21664;BME280;10993;52.510;13.456;2023-06-22T05:15:18;61451.91;;;-146.93;32.20
21664;BME280;10993;52.510;13.456;2023-06-22T05:20:23;60928.84;;;-146.93;33.33
21664;BME280;10993;52.510;13.456;2023-06-22T05:25:23;59852.50;;;-146.93;36.73
21664;BME280;10993;52.510;13.456;2023-06-22T05:30:25;59546.50;;;-146.93;38.75
21664;BME280;10993;52.510;13.456;2023-06-22T05:35:25;59461.38;;;-146.93;39.03
21664;BME280;10993;52.510;13.456;2023-06-22T05:40:25;58837.31;;;-146.93;44.63
21664;BME280;10993;52.510;13.456;2023-06-22T05:45:28;58772.47;;;-146.93;46.84
21664;BME280;10993;52.510;13.456;2023-06-22T05:50:29;58634.72;;;-146.93;49.16
21664;BME280;10993;52.510;13.456;2023-06-22T05:55:29;58770.44;;;-146.93;46.31
21664;BME280;10993;52.510;13.456;2023-06-22T06:00:31;58960.91;;;-146.93;44.04
21664;BME280;10993;52.510;13.456;2023-06-22T06:05:31;58871.75;;;-146.93;44.31
21664;BME280;10993;52.510;13.456;2023-06-22T06:10:32;58969.00;;;-146.93;41.62
21664;BME280;10993;52.510;13.456;2023-06-22T06:15:34;59177.69;;;-146.93;40.10
21664;BME280;10993;52.510;13.456;2023-06-22T06:20:34;59503.94;;;-146.93;38.38
21664;BME280;10993;52.510;13.456;2023-06-22T06:25:35;60239.63;;;-146.93;35.91
21664;BME280;10993;52.510;13.456;2023-06-22T06:30:37;60476.78;;;-146.93;34.40
21664;BME280;10993;52.510;13.456;2023-06-22T06:35:37;60028.84;;;-146.93;35.56
21664;BME280;10993;52.510;13.456;2023-06-22T06:40:38;59945.75;;;-146.93;36.79
21664;BME280;10993;52.510;13.456;2023-06-22T06:45:39;60645.03;;;-146.93;32.71
21664;BME280;10993;52.510;13.456;2023-06-22T06:50:40;61638.47;;;-146.93;31.37
21664;BME280;10993;52.510;13.456;2023-06-22T06:55:40;60176.78;;;-146.93;33.85
21664;BME280;10993;52.510;13.456;2023-06-22T07:00:42;60332.88;;;-146.93;34.01
21664;BME280;10993;52.510;13.456;2023-06-22T07:05:43;61016.00;;;-146.93;31.81
21664;BME280;10993;52.510;13.456;2023-06-22T07:10:44;61237.00;;;-146.93;30.72
21664;BME280;10993;52.510;13.456;2023-06-22T07:15:45;61253.22;;;-146.93;30.95
21664;BME280;10993;52.510;13.456;2023-06-22T07:20:46;61431.66;;;-146.93;30.11
21664;BME280;10993;52.510;13.456;2023-06-22T07:25:47;62301.59;;;-146.93;29.24
21664;BME280;10993;52.510;13.456;2023-06-22T07:30:49;62879.66;;;-146.93;28.26
21664;BME280;10993;52.510;13.456;2023-06-22T07:35:51;63021.66;;;-146.93;27.13
21664;BME280;10993;52.510;13.456;2023-06-22T07:40:52;62106.91;;;-146.93;27.88
21664;BME280;10993;52.510;13.456;2023-06-22T07:45:54;60732.19;;;-146.93;30.20
21664;BME280;10993;52.510;13.456;2023-06-22T07:50:55;60754.50;;;-146.93;29.88
21664;BME280;10993;52.510;13.456;2023-06-22T07:55:55;60559.88;;;-146.93;29.85
21664;BME280;10993;52.510;13.456;2023-06-22T08:00:57;61376.91;;;-146.93;28.71
21664;BME280;10993;52.510;13.456;2023-06-22T08:05:58;61283.63;;;-146.93;27.74
21664;BME280;10993;52.510;13.456;2023-06-22T08:10:58;60703.81;;;-146.93;28.51
21664;BME280;10993;52.510;13.456;2023-06-22T08:16:00;60450.44;;;-146.93;29.62
21664;BME280;10993;52.510;13.456;2023-06-22T08:21:00;60365.28;;;-146.93;30.18
21664;BME280;10993;52.510;13.456;2023-06-22T08:26:01;60138.28;;;-146.93;30.01
21664;BME280;10993;52.510;13.456;2023-06-22T08:31:04;59935.59;;;-146.93;30.38
21664;BME280;10993;52.510;13.456;2023-06-22T08:36:05;59868.72;;;-146.93;31.51
21664;BME280;10993;52.510;13.456;2023-06-22T08:41:06;59864.66;;;-146.93;31.62
21664;BME280;10993;52.510;13.456;2023-06-22T08:46:08;59844.41;;;-146.93;32.29
21664;BME280;10993;52.510;13.456;2023-06-22T08:51:08;59903.19;;;-146.93;32.07
21664;BME280;10993;52.510;13.456;2023-06-22T08:56:08;60057.22;;;-146.93;31.57
21664;BME280;10993;52.510;13.456;2023-06-22T09:01:10;60470.69;;;-146.93;30.65
21664;BME280;10993;52.510;13.456;2023-06-22T09:06:10;61322.16;;;-146.93;29.34
21664;BME280;10993;52.510;13.456;2023-06-22T09:11:11;62332.03;;;-146.93;28.14
21664;BME280;10993;52.510;13.456;2023-06-22T09:16:12;62305.66;;;-146.93;27.12
21664;BME280;10993;52.510;13.456;2023-06-22T09:21:13;61920.34;;;-146.93;27.11
21664;BME280;10993;52.510;13.456;2023-06-22T09:26:14;61537.09;;;-146.93;27.42
21664;BME280;10993;52.510;13.456;2023-06-22T09:31:15;61228.88;;;-146.93;28.02
21664;BME280;10993;52.510;13.456;2023-06-22T09:36:20;61184.28;;;-146.93;27.22
21664;BME280;10993;52.510;13.456;2023-06-22T09:41:20;61468.16;;;-146.93;28.33
21664;BME280;10993;52.510;13.456;2023-06-22T09:46:22;62362.44;;;-146.93;27.22
21664;BME280;10993;52.510;13.456;2023-06-22T09:51:25;61502.63;;;-146.93;27.78
21664;BME280;10993;52.510;13.456;2023-06-22T09:56:25;61851.38;;;-146.93;27.71
21664;BME280;10993;52.510;13.456;2023-06-22T10:01:29;61524.91;;;-146.93;27.48
21664;BME280;10993;52.510;13.456;2023-06-22T10:06:30;62064.31;;;-146.93;27.60
21664;BME280;10993;52.510;13.456;2023-06-22T10:11:30;63080.47;;;-146.93;26.78
21664;BME280;10993;52.510;13.456;2023-06-22T10:16:33;62857.34;;;-146.93;26.36
21664;BME280;10993;52.510;13.456;2023-06-22T10:21:36;62845.19;;;-146.93;26.70
21664;BME280;10993;52.510;13.456;2023-06-22T10:26:36;62210.34;;;-146.93;27.11
21664;BME280;10993;52.510;13.456;2023-06-22T10:31:38;62165.72;;;-146.93;27.66
21664;BME280;10993;52.510;13.456;2023-06-22T10:36:38;62668.72;;;-146.93;26.61
21664;BME280;10993;52.510;13.456;2023-06-22T10:41:39;62242.78;;;-146.93;27.25
21664;BME280;10993;52.510;13.456;2023-06-22T10:46:40;63496.38;;;-146.93;25.58
21664;BME280;10993;52.510;13.456;2023-06-22T10:51:41;64669.22;;;-146.93;24.46
21664;BME280;10993;52.510;13.456;2023-06-22T10:56:41;64537.31;;;-146.93;24.45
21664;BME280;10993;52.510;13.456;2023-06-22T11:01:43;63362.47;;;-146.93;25.39
21664;BME280;10993;52.510;13.456;2023-06-22T11:06:43;63058.16;;;-146.93;25.92
21664;BME280;10993;52.510;13.456;2023-06-22T11:11:44;62396.91;;;-146.93;26.43
21664;BME280;10993;52.510;13.456;2023-06-22T11:16:46;62388.81;;;-146.93;26.17
21664;BME280;10993;52.510;13.456;2023-06-22T11:21:49;62423.28;;;-146.93;26.24
21664;BME280;10993;52.510;13.456;2023-06-22T11:26:49;61946.69;;;-146.93;26.54
21664;BME280;10993;52.510;13.456;2023-06-22T11:31:51;62031.88;;;-146.93;26.47
21664;BME280;10993;52.510;13.456;2023-06-22T11:36:51;61918.31;;;-146.93;26.74
21664;BME280;10993;52.510;13.456;2023-06-22T11:41:51;61898.03;;;-146.93;26.78
21664;BME280;10993;52.510;13.456;2023-06-22T11:46:53;62082.56;;;-146.93;26.60
21664;BME280;10993;52.510;13.456;2023-06-22T11:51:53;62076.47;;;-146.93;26.76
21664;BME280;10993;52.510;13.456;2023-06-22T11:56:56;61954.81;;;-146.93;26.65
21664;BME280;10993;52.510;13.456;2023-06-22T12:01:58;61330.25;;;-146.93;27.80
21664;BME280;10993;52.510;13.456;2023-06-22T12:06:59;61502.63;;;-146.93;27.29
21664;BME280;10993;52.510;13.456;2023-06-22T12:11:59;61616.16;;;-146.93;27.32
21664;BME280;10993;52.510;13.456;2023-06-22T12:17:01;61022.09;;;-146.93;27.60
21664;BME280;10993;52.510;13.456;2023-06-22T12:22:01;60938.97;;;-146.93;28.43
21664;BME280;10993;52.510;13.456;2023-06-22T12:27:02;60705.84;;;-146.93;28.56
21664;BME280;10993;52.510;13.456;2023-06-22T12:32:05;60778.81;;;-146.93;28.49
21664;BME280;10993;52.510;13.456;2023-06-22T12:37:06;60734.22;;;-146.93;29.05
21664;BME280;10993;52.510;13.456;2023-06-22T12:42:07;60497.06;;;-146.93;29.39
21664;BME280;10993;52.510;13.456;2023-06-22T12:47:10;60509.22;;;-146.93;29.57
21664;BME280;10993;52.510;13.456;2023-06-22T12:52:11;60292.31;;;-146.93;29.83
21664;BME280;10993;52.510;13.456;2023-06-22T12:57:11;60687.59;;;-146.93;29.39
21664;BME280;10993;52.510;13.456;2023-06-22T13:02:13;60592.31;;;-146.93;29.68
21664;BME280;10993;52.510;13.456;2023-06-22T13:07:13;60537.59;;;-146.93;29.67
21664;BME280;10993;52.510;13.456;2023-06-22T13:12:14;60590.28;;;-146.93;29.81
21664;BME280;10993;52.510;13.456;2023-06-22T13:17:15;60628.81;;;-146.93;29.91
21664;BME280;10993;52.510;13.456;2023-06-22T13:22:27;60718.00;;;-146.93;29.40
21664;BME280;10993;52.510;13.456;2023-06-22T13:27:29;60592.31;;;-146.93;29.68
21664;BME280;10993;52.510;13.456;2023-06-22T13:32:30;60434.22;;;-146.93;30.05
21664;BME280;10993;52.510;13.456;2023-06-22T13:37:31;60426.09;;;-146.93;30.33
21664;BME280;10993;52.510;13.456;2023-06-22T13:42:31;60312.59;;;-146.93;30.78
21664;BME280;10993;52.510;13.456;2023-06-22T13:47:33;60312.59;;;-146.93;30.62
21664;BME280;10993;52.510;13.456;2023-06-22T13:52:33;60136.25;;;-146.93;30.84
21664;BME280;10993;52.510;13.456;2023-06-22T13:57:34;60199.09;;;-146.93;31.10
21664;BME280;10993;52.510;13.456;2023-06-22T14:02:35;60126.13;;;-146.93;30.96
21664;BME280;10993;52.510;13.456;2023-06-22T14:07:36;60128.16;;;-146.93;31.21
21664;BME280;10993;52.510;13.456;2023-06-22T14:12:37;60290.31;;;-146.93;30.68
21664;BME280;10993;52.510;13.456;2023-06-22T14:17:39;60288.28;;;-146.93;30.92
21664;BME280;10993;52.510;13.456;2023-06-22T14:22:39;60270.03;;;-146.93;30.70
21664;BME280;10993;52.510;13.456;2023-06-22T14:27:40;60274.09;;;-146.93;30.83
21664;BME280;10993;52.510;13.456;2023-06-22T14:32:43;60130.19;;;-146.93;30.99
21664;BME280;10993;52.510;13.456;2023-06-22T14:37:43;60168.69;;;-146.93;31.37
21664;BME280;10993;52.510;13.456;2023-06-22T14:42:44;60223.41;;;-146.93;31.28
21664;BME280;10993;52.510;13.456;2023-06-22T14:47:45;60089.63;;;-146.93;31.31
21664;BME280;10993;52.510;13.456;2023-06-22T14:52:46;60784.91;;;-146.93;31.91
21664;BME280;10993;52.510;13.456;2023-06-22T14:57:46;60142.34;;;-146.93;31.45
21664;BME280;10993;52.510;13.456;2023-06-22T15:02:48;60138.28;;;-146.93;31.46
21664;BME280;10993;52.510;13.456;2023-06-22T15:07:49;60219.34;;;-146.93;31.40
21664;BME280;10993;52.510;13.456;2023-06-22T15:12:49;60162.59;;;-146.93;31.57
21664;BME280;10993;52.510;13.456;2023-06-22T15:17:51;60101.81;;;-146.93;31.34
21664;BME280;10993;52.510;13.456;2023-06-22T15:22:51;60073.44;;;-146.93;31.89
21664;BME280;10993;52.510;13.456;2023-06-22T15:27:51;60089.63;;;-146.93;31.85
21664;BME280;10993;52.510;13.456;2023-06-22T15:32:53;60097.75;;;-146.93;32.01
21664;BME280;10993;52.510;13.456;2023-06-22T15:37:53;60093.69;;;-146.93;31.86
21664;BME280;10993;52.510;13.456;2023-06-22T15:42:54;60081.53;;;-146.93;32.16
21664;BME280;10993;52.510;13.456;2023-06-22T15:47:56;60036.94;;;-146.93;32.34
21664;BME280;10993;52.510;13.456;2023-06-22T15:52:56;60174.75;;;-146.93;32.40
21664;BME280;10993;52.510;13.456;2023-06-22T15:57:56;60063.28;;;-146.93;32.32
21664;BME280;10993;52.510;13.456;2023-06-22T16:02:58;60045.06;;;-146.93;32.36
21664;BME280;10993;52.510;13.456;2023-06-22T16:07:59;60069.38;;;-146.93;32.50
21664;BME280;10993;52.510;13.456;2023-06-22T16:12:59;60077.47;;;-146.93;32.50
21664;BME280;10993;52.510;13.456;2023-06-22T16:18:01;60020.72;;;-146.93;32.82
21664;BME280;10993;52.510;13.456;2023-06-22T16:23:01;60016.69;;;-146.93;32.84
21664;BME280;10993;52.510;13.456;2023-06-22T16:28:04;60089.63;;;-146.93;33.10
21664;BME280;10993;52.510;13.456;2023-06-22T16:33:08;60059.25;;;-146.93;32.97
21664;BME280;10993;52.510;13.456;2023-06-22T16:38:08;59854.53;;;-146.93;33.49
21664;BME280;10993;52.510;13.456;2023-06-22T16:43:09;59870.75;;;-146.93;33.22
21664;BME280;10993;52.510;13.456;2023-06-22T16:48:10;59856.56;;;-146.93;33.42
21664;BME280;10993;52.510;13.456;2023-06-22T16:53:11;59797.78;;;-146.93;33.36
21664;BME280;10993;52.510;13.456;2023-06-22T16:58:12;59811.97;;;-146.93;33.92
21664;BME280;10993;52.510;13.456;2023-06-22T17:03:25;59765.38;;;-146.93;33.92
21664;BME280;10993;52.510;13.456;2023-06-22T17:08:29;59732.94;;;-146.93;33.88
21664;BME280;10993;52.510;13.456;2023-06-22T17:13:34;59749.16;;;-146.93;33.72
21664;BME280;10993;52.510;13.456;2023-06-22T17:18:36;59734.97;;;-146.93;33.94
21664;BME280;10993;52.510;13.456;2023-06-22T17:23:37;59732.94;;;-146.93;34.28
21664;BME280;10993;52.510;13.456;2023-06-22T17:28:47;59745.09;;;-146.93;34.16
21664;BME280;10993;52.510;13.456;2023-06-22T17:33:49;59686.34;;;-146.93;34.37
21664;BME280;10993;52.510;13.456;2023-06-22T17:38:50;59666.06;;;-146.93;34.66
21664;BME280;10993;52.510;13.456;2023-06-22T17:43:50;59526.25;;;-146.93;34.75
21664;BME280;10993;52.510;13.456;2023-06-22T17:48:54;59603.25;;;-146.93;34.89
21664;BME280;10993;52.510;13.456;2023-06-22T17:53:56;59655.94;;;-146.93;34.72
21664;BME280;10993;52.510;13.456;2023-06-22T17:58:56;59556.63;;;-146.93;34.81
21664;BME280;10993;52.510;13.456;2023-06-22T18:04:00;59510.03;;;-146.93;34.89
21664;BME280;10993;52.510;13.456;2023-06-22T18:09:02;59317.50;;;-146.93;35.36
21664;BME280;10993;52.510;13.456;2023-06-22T18:14:04;59380.34;;;-146.93;35.44
21664;BME280;10993;52.510;13.456;2023-06-22T18:19:06;59333.72;;;-146.93;35.78
21664;BME280;10993;52.510;13.456;2023-06-22T18:24:07;59236.47;;;-146.93;36.11
21664;BME280;10993;52.510;13.456;2023-06-22T18:29:09;59297.25;;;-146.93;35.77
21664;BME280;10993;52.510;13.456;2023-06-22T18:34:11;59268.88;;;-146.93;35.81
21664;BME280;10993;52.510;13.456;2023-06-22T18:39:12;59226.34;;;-146.93;36.13
21664;BME280;10993;52.510;13.456;2023-06-22T18:44:18;59173.66;;;-146.93;36.29
21664;BME280;10993;52.510;13.456;2023-06-22T18:49:24;60010.59;;;-146.93;36.27
21664;BME280;10993;52.510;13.456;2023-06-22T18:54:32;59110.84;;;-146.93;36.57
21664;BME280;10993;52.510;13.456;2023-06-22T18:59:41;59068.28;;;-146.93;36.43
21664;BME280;10993;52.510;13.456;2023-06-22T19:04:44;59076.41;;;-146.93;36.67
21664;BME280;10993;52.510;13.456;2023-06-22T19:10:20;59068.28;;;-146.93;36.63
21664;BME280;10993;52.510;13.456;2023-06-22T19:15:29;58991.28;;;-146.93;36.93
21664;BME280;10993;52.510;13.456;2023-06-22T19:20:33;58922.41;;;-146.93;37.04
21664;BME280;10993;52.510;13.456;2023-06-22T19:25:34;58938.63;;;-146.93;36.95
21664;BME280;10993;52.510;13.456;2023-06-22T19:30:37;58962.94;;;-146.93;37.10
21664;BME280;10993;52.510;13.456;2023-06-22T19:35:38;58885.94;;;-146.93;37.10
21664;BME280;10993;52.510;13.456;2023-06-22T19:40:39;58833.25;;;-146.93;37.21
21664;BME280;10993;52.510;13.456;2023-06-22T19:45:42;58841.38;;;-146.93;37.40
21664;BME280;10993;52.510;13.456;2023-06-22T19:50:43;58778.56;;;-146.93;37.66
21664;BME280;10993;52.510;13.456;2023-06-22T19:55:45;58786.66;;;-146.93;37.64
21664;BME280;10993;52.510;13.456;2023-06-22T20:00:47;58825.16;;;-146.93;37.62
21664;BME280;10993;52.510;13.456;2023-06-22T20:05:53;58796.78;;;-146.93;37.94
21664;BME280;10993;52.510;13.456;2023-06-22T20:10:55;58709.66;;;-146.93;37.97
21664;BME280;10993;52.510;13.456;2023-06-22T20:15:56;58717.78;;;-146.93;38.47
21664;BME280;10993;52.510;13.456;2023-06-22T20:20:57;58731.97;;;-146.93;38.08
21664;BME280;10993;52.510;13.456;2023-06-22T20:25:57;58748.16;;;-146.93;37.99
21664;BME280;10993;52.510;13.456;2023-06-22T20:31:04;58667.13;;;-146.93;38.99
21664;BME280;10993;52.510;13.456;2023-06-22T20:36:06;58462.50;;;-146.93;39.98
21664;BME280;10993;52.510;13.456;2023-06-22T20:41:06;58294.38;;;-146.93;49.13
21664;BME280;10993;52.510;13.456;2023-06-22T20:46:08;57958.13;;;-146.93;73.61
21664;BME280;10993;52.510;13.456;2023-06-22T20:51:08;57765.69;;;-146.93;90.08
21664;BME280;10993;52.510;13.456;2023-06-22T20:56:09;57508.47;;;-146.93;90.86
21664;BME280;10993;52.510;13.456;2023-06-22T21:01:10;57386.97;;;-146.93;89.38
21664;BME280;10993;52.510;13.456;2023-06-22T21:06:18;57318.09;;;-146.93;94.69
21664;BME280;10993;52.510;13.456;2023-06-22T21:11:18;57342.41;;;-146.93;98.18
21664;BME280;10993;52.510;13.456;2023-06-22T21:16:20;57344.44;;;-146.93;98.08
21664;BME280;10993;52.510;13.456;2023-06-22T21:21:20;57342.41;;;-146.93;100.00
21664;BME280;10993;52.510;13.456;2023-06-22T21:26:20;57397.09;;;-146.93;100.00
21664;BME280;10993;52.510;13.456;2023-06-22T21:31:22;57397.09;;;-146.93;100.00
21664;BME280;10993;52.510;13.456;2023-06-22T21:36:23;57393.03;;;-146.93;100.00
21664;BME280;10993;52.510;13.456;2023-06-22T21:41:23;57386.97;;;-146.93;98.87
21664;BME280;10993;52.510;13.456;2023-06-22T21:46:25;57314.06;;;-146.93;100.00
21664;BME280;10993;52.510;13.456;2023-06-22T21:51:25;57557.09;;;-146.93;100.00
21664;BME280;10993;52.510;13.456;2023-06-22T21:56:26;57563.16;;;-146.93;100.00
21664;BME280;10993;52.510;13.456;2023-06-22T22:01:28;57536.84;;;-146.93;100.00
21664;BME280;10993;52.510;13.456;2023-06-22T22:06:28;57472.03;;;-146.93;100.00
21664;BME280;10993;52.510;13.456;2023-06-22T22:11:29;57451.78;;;-146.93;100.00
21664;BME280;10993;52.510;13.456;2023-06-22T22:16:31;57423.41;;;-146.93;100.00
21664;BME280;10993;52.510;13.456;2023-06-22T22:21:31;57417.34;;;-146.93;100.00
21664;BME280;10993;52.510;13.456;2023-06-22T22:26:31;57397.09;;;-146.93;100.00
21664;BME280;10993;52.510;13.456;2023-06-22T22:31:33;57322.16;;;-146.93;100.00
21664;BME280;10993;52.510;13.456;2023-06-22T22:36:38;57316.09;;;-146.93;100.00
21664;BME280;10993;52.510;13.456;2023-06-22T22:41:41;57289.75;;;-146.93;100.00
21664;BME280;10993;52.510;13.456;2023-06-22T22:46:43;57253.31;;;-146.93;100.00
21664;BME280;10993;52.510;13.456;2023-06-22T22:51:43;57251.28;;;-146.93;100.00
21664;BME280;10993;52.510;13.456;2023-06-22T22:56:44;57237.09;;;-146.93;100.00
21664;BME280;10993;52.510;13.456;2023-06-22T23:01:45;57208.75;;;-146.93;100.00
21664;BME280;10993;52.510;13.456;2023-06-22T23:06:46;57202.69;;;-146.93;100.00
21664;BME280;10993;52.510;13.456;2023-06-22T23:11:46;57093.31;;;-146.93;100.00
21664;BME280;10993;52.510;13.456;2023-06-22T23:16:48;57184.44;;;-146.93;100.00
21664;BME280;10993;52.510;13.456;2023-06-22T23:21:49;57145.97;;;-146.93;100.00
21664;BME280;10993;52.510;13.456;2023-06-22T23:26:49;57131.81;;;-146.93;100.00
21664;BME280;10993;52.510;13.456;2023-06-22T23:31:51;57113.56;;;-146.93;100.00
21664;BME280;10993;52.510;13.456;2023-06-22T23:36:52;57135.84;;;-146.93;100.00
21664;BME280;10993;52.510;13.456;2023-06-22T23:41:52;57113.56;;;-146.93;100.00
21664;BME280;10993;52.510;13.456;2023-06-22T23:46:54;57064.97;;;-146.93;100.00
21664;BME280;10993;52.510;13.456;2023-06-22T23:51:57;57079.16;;;-146.93;100.00
21664;BME280;10993;52.510;13.456;2023-06-22T23:56:58;57087.25;;;-146.93;100.00
